Time;durP1;ratioP1;P1;durP2;ratioP2;P2;SDS_P1;SDS_P2;PMS_P1;PMS_P2;Temp;Humidity;BMP_temperature;BMP_pressure;BME280_temperature;BME280_humidity;BME280_pressure;Samples;Min_cycle;Max_cycle;Signal;HPM_P1;HPM_P2
2023/07/10 00:01:15;;;;;;;2.60;1.80;;;;;;;21.65;43.56;99561.55;107856;1308;22240;-50
2023/07/10 00:03:40;;;;;;;4.00;1.80;;;;;;;21.63;43.71;99557.84;107843;1308;22238;-51
2023/07/10 00:06:11;;;;;;;3.30;1.80;;;;;;;21.60;43.84;99554.90;107807;1308;22230;-48
2023/07/10 00:08:37;;;;;;;1.80;1.70;;;;;;;21.56;44.19;99553.95;107845;1308;22227;-52
2023/07/10 00:11:02;;;;;;;4.20;1.70;;;;;;;21.56;43.71;99554.25;107859;1308;22897;-45
2023/07/10 00:13:29;;;;;;;3.20;1.90;;;;;;;21.55;43.48;99554.90;107862;1308;22271;-47
2023/07/10 00:15:55;;;;;;;2.10;1.70;;;;;;;21.53;43.44;99553.58;107861;1308;22249;-51
2023/07/10 00:18:22;;;;;;;3.30;1.50;;;;;;;21.54;43.23;99550.98;107856;1308;23263;-48
2023/07/10 00:20:48;;;;;;;3.10;1.90;;;;;;;21.53;43.74;99551.43;107477;1308;22431;-47
2023/07/10 00:23:15;;;;;;;3.10;1.60;;;;;;;21.52;43.85;99554.27;107844;1308;22999;-46
2023/07/10 00:25:41;;;;;;;3.10;1.60;;;;;;;21.49;43.86;99554.89;107856;1308;22256;-49
2023/07/10 00:28:19;;;;;;;2.60;1.50;;;;;;;21.46;44.16;99555.80;107845;1308;22979;-47
2023/07/10 00:30:46;;;;;;;2.40;1.90;;;;;;;21.45;44.05;99556.06;107847;1308;22457;-50
2023/07/10 00:33:13;;;;;;;1.70;1.50;;;;;;;21.46;43.92;99556.94;107820;1308;23030;-50
2023/07/10 00:35:39;;;;;;;4.20;1.80;;;;;;;21.46;44.67;99559.60;107853;1308;22265;-47
2023/07/10 00:38:25;;;;;;;2.20;1.70;;;;;;;21.44;44.58;99559.46;107825;1308;22968;-48
2023/07/10 00:40:52;;;;;;;2.00;1.80;;;;;;;21.41;44.54;99557.41;107868;1308;22254;-50
2023/07/10 00:43:31;;;;;;;2.10;1.50;;;;;;;21.39;44.65;99561.91;107832;1308;23007;-46
2023/07/10 00:46:09;;;;;;;4.20;1.70;;;;;;;21.35;45.00;99561.89;107823;1308;22923;-45
2023/07/10 00:48:40;;;;;;;1.80;1.70;;;;;;;21.31;45.32;99562.08;107847;1308;23613;-50
2023/07/10 00:51:14;;;;;;;2.40;1.60;;;;;;;21.29;45.40;99562.67;107833;1308;22953;-51
2023/07/10 00:53:44;;;;;;;2.10;1.70;;;;;;;21.25;45.38;99561.05;107844;1308;22291;-51
2023/07/10 00:56:17;;;;;;;1.70;1.60;;;;;;;21.23;46.01;99561.04;107844;1308;22222;-53
2023/07/10 00:58:45;;;;;;;1.50;1.20;;;;;;;21.22;46.28;99559.02;107862;1308;22933;-45
2023/07/10 01:01:14;;;;;;;3.80;1.90;;;;;;;21.21;45.77;99557.92;107827;1308;22720;-45
2023/07/10 01:03:40;;;;;;;1.80;1.50;;;;;;;21.20;45.94;99556.37;107838;1308;22229;-50
2023/07/10 01:06:16;;;;;;;3.80;1.70;;;;;;;21.21;45.93;99555.41;107866;1308;22293;-47
2023/07/10 01:08:56;;;;;;;1.50;1.40;;;;;;;21.21;45.82;99551.84;107858;1308;22236;-47
2023/07/10 01:11:22;;;;;;;1.60;1.50;;;;;;;21.21;45.40;99550.93;107857;1308;23276;-52
2023/07/10 01:13:50;;;;;;;1.60;1.50;;;;;;;21.20;45.46;99548.54;107853;1308;22415;-47
2023/07/10 01:16:16;;;;;;;1.70;1.60;;;;;;;21.18;45.24;99543.42;107823;1308;22432;-53
2023/07/10 01:18:42;;;;;;;3.50;2.00;;;;;;;21.16;45.30;99540.52;107863;1308;22259;-46
2023/07/10 01:21:12;;;;;;;2.50;1.80;;;;;;;21.17;45.63;99538.14;107843;1308;22723;-50
2023/07/10 01:23:37;;;;;;;1.80;1.70;;;;;;;21.17;45.75;99534.23;107842;1308;22985;-48
2023/07/10 01:26:06;;;;;;;2.20;1.50;;;;;;;21.18;45.36;99539.33;107859;1308;22410;-49
2023/07/10 01:28:35;;;;;;;2.40;1.80;;;;;;;21.16;45.22;99537.93;107856;1308;23211;-48
2023/07/10 01:31:05;;;;;;;2.20;1.60;;;;;;;21.13;45.39;99538.30;107829;1308;22254;-49
2023/07/10 01:33:55;;;;;;;4.20;1.90;;;;;;;21.12;45.41;99537.17;107848;1308;22260;-45
2023/07/10 01:36:25;;;;;;;2.10;1.80;;;;;;;21.10;45.89;99534.35;107856;1308;22289;-47
2023/07/10 01:38:58;;;;;;;2.00;1.80;;;;;;;21.08;45.51;99536.10;107824;1308;22842;-47
2023/07/10 01:41:31;;;;;;;2.00;1.70;;;;;;;21.06;45.13;99533.96;107851;1308;22932;-50
2023/07/10 01:43:57;;;;;;;2.40;2.00;;;;;;;21.04;45.55;99529.39;107858;1308;22291;-48
2023/07/10 01:46:27;;;;;;;3.90;2.10;;;;;;;21.02;45.96;99525.79;107861;1308;22353;-47
2023/07/10 01:48:55;;;;;;;2.70;1.80;;;;;;;20.99;46.28;99523.30;107850;1308;22476;-45
2023/07/10 01:51:22;;;;;;;2.50;1.80;;;;;;;20.96;46.64;99522.80;107839;1308;22702;-44
2023/07/10 01:53:48;;;;;;;3.80;1.90;;;;;;;20.94;46.90;99522.98;107862;1308;23189;-52
2023/07/10 01:56:17;;;;;;;2.80;2.20;;;;;;;20.92;46.88;99520.02;107834;1308;22977;-57
2023/07/10 01:58:43;;;;;;;2.60;1.90;;;;;;;20.88;46.91;99513.55;107847;1308;22223;-47
2023/07/10 02:01:09;;;;;;;2.10;1.90;;;;;;;20.85;47.07;99510.33;107851;1308;23304;-49
2023/07/10 02:03:35;;;;;;;3.70;2.10;;;;;;;20.80;47.28;99509.59;107854;1308;22248;-48
2023/07/10 02:06:00;;;;;;;3.80;2.10;;;;;;;20.75;47.67;99508.06;107840;1308;22292;-47
2023/07/10 02:08:26;;;;;;;2.90;2.10;;;;;;;20.74;47.11;99509.25;107847;1308;22457;-50
2023/07/10 02:10:52;;;;;;;4.90;1.70;;;;;;;20.69;47.59;99506.30;107825;1308;22255;-48
2023/07/10 02:13:17;;;;;;;7.50;2.30;;;;;;;20.65;47.71;99503.80;107580;1308;22477;-46
2023/07/10 02:15:42;;;;;;;3.90;1.90;;;;;;;20.65;47.56;99504.57;107823;1308;22487;-52
2023/07/10 02:18:08;;;;;;;1.90;1.80;;;;;;;20.65;47.41;99502.07;107825;1308;22276;-48
2023/07/10 02:20:33;;;;;;;4.70;2.10;;;;;;;20.64;47.89;99501.25;107819;1308;22425;-49
2023/07/10 02:22:58;;;;;;;4.30;2.00;;;;;;;20.65;48.14;99506.81;107850;1308;22332;-46
2023/07/10 02:25:23;;;;;;;2.30;1.70;;;;;;;20.67;47.62;99510.23;107838;1308;22982;-52
2023/07/10 02:27:50;;;;;;;2.20;1.90;;;;;;;20.66;47.63;99508.77;107833;1308;22414;-50
2023/07/10 02:30:15;;;;;;;2.50;1.50;;;;;;;20.67;47.74;99511.66;107822;1302;22221;-47
2023/07/10 02:32:40;;;;;;;5.60;2.60;;;;;;;20.65;48.03;99515.34;107838;1308;22189;-49
2023/07/10 02:35:06;;;;;;;6.80;2.20;;;;;;;20.65;47.87;99513.09;107806;1308;22282;-50
2023/07/10 02:37:31;;;;;;;4.90;1.90;;;;;;;20.63;48.32;99514.19;107832;1308;23264;-47
2023/07/10 02:39:56;;;;;;;5.20;2.00;;;;;;;20.62;48.46;99511.38;107773;1308;24407;-47
2023/07/10 02:42:23;;;;;;;6.50;2.50;;;;;;;20.62;48.41;99511.07;107520;1309;194241;-49
2023/07/10 02:44:48;;;;;;;3.20;2.00;;;;;;;20.58;47.92;99506.38;107676;1309;22413;-51
2023/07/10 02:49:06;;;;;;;3.90;2.00;;;;;;;20.60;48.27;99520.13;106901;1302;545295;-47
2023/07/10 02:51:32;;;;;;;2.40;1.90;;;;;;;20.58;48.23;99521.52;107280;1314;22469;-51
2023/07/10 02:53:57;;;;;;;2.00;1.80;;;;;;;20.59;48.37;99521.15;107252;1314;25133;-47
2023/07/10 02:56:23;;;;;;;2.70;2.00;;;;;;;20.59;47.59;99522.69;107268;1314;22269;-48
2023/07/10 02:58:50;;;;;;;9.00;2.20;;;;;;;20.57;48.30;99520.08;107269;1314;22245;-43
2023/07/10 03:01:15;;;;;;;3.90;1.70;;;;;;;20.57;48.17;99524.35;107372;1313;22241;-47
2023/07/10 03:03:45;;;;;;;3.40;1.80;;;;;;;20.58;48.18;99518.55;107429;1311;133312;-47
2023/07/10 03:06:10;;;;;;;5.00;2.20;;;;;;;20.58;48.58;99520.70;107559;1311;22225;-45
2023/07/10 03:08:36;;;;;;;2.90;2.00;;;;;;;20.57;48.37;99524.27;107538;1288;22240;-49
2023/07/10 03:11:06;;;;;;;2.80;2.00;;;;;;;20.57;48.79;99527.30;107549;1311;22996;-48
2023/07/10 03:13:32;;;;;;;6.00;2.10;;;;;;;20.58;48.25;99526.18;107569;1311;22237;-52
2023/07/10 03:16:07;;;;;;;3.80;2.20;;;;;;;20.58;47.97;99524.22;107574;1311;22220;-50
2023/07/10 03:18:32;;;;;;;3.20;2.20;;;;;;;20.59;48.90;99525.34;107553;1311;22493;-50
2023/07/10 03:20:57;;;;;;;3.80;2.50;;;;;;;20.62;48.22;99527.24;107529;1311;22235;-50
2023/07/10 03:23:23;;;;;;;4.50;2.20;;;;;;;20.63;48.09;99531.93;107547;1311;23130;-47
2023/07/10 03:25:48;;;;;;;3.80;2.40;;;;;;;20.64;47.42;99522.83;107525;1311;22232;-48
2023/07/10 03:28:14;;;;;;;3.40;2.00;;;;;;;20.65;47.71;99528.76;107607;1311;22252;-47
2023/07/10 03:30:40;;;;;;;6.80;2.10;;;;;;;20.66;48.61;99534.20;107611;1310;22983;-49
2023/07/10 03:33:06;;;;;;;4.80;2.10;;;;;;;20.67;48.20;99535.84;107600;1311;22896;-50
2023/07/10 03:35:31;;;;;;;4.80;2.20;;;;;;;20.69;47.54;99535.30;107596;1310;22462;-46
